Time;durP1;ratioP1;P1;durP2;ratioP2;P2;SDS_P1;SDS_P2;PMS_P1;PMS_P2;Temp;Humidity;BMP_temperature;BMP_pressure;BME280_temperature;BME280_humidity;BME280_pressure;Samples;Min_cycle;Max_cycle;Signal;HPM_P1;HPM_P2
2022/10/11 00:02:08;;;;;;;;;;;;;;;;;;7371722;19;2056;-40
2022/10/11 00:04:36;;;;;;;;;;;;;;;;;;7365888;19;1850;-44
2022/10/11 00:07:04;;;;;;;;;;;;;;;;;;7367926;19;836;-44
2022/10/11 00:09:32;;;;;;;;;;;;;;;;;;7370851;19;1824;-43
2022/10/11 00:12:00;;;;;;;;;;;;;;;;;;7367454;19;825;-41
2022/10/11 00:14:28;;;;;;;;;;;;;;;;;;7365937;19;2023;-43
2022/10/11 00:16:56;;;;;;;;;;;;;;;;;;7366537;19;1900;-43
2022/10/11 00:19:24;;;;;;;;;;;;;;;;;;7366465;19;1800;-46
2022/10/11 00:21:53;;;;;;;;;;;;;;;;;;7368605;19;1551;-48
2022/10/11 00:24:21;;;;;;;;;;;;;;;;;;7368677;19;1831;-48
2022/10/11 00:26:49;;;;;;;;;;;;;;;;;;7369492;19;1794;-46
2022/10/11 00:29:17;;;;;;;;;;;;;;;;;;7365526;19;1761;-49
2022/10/11 00:31:45;;;;;;;;;;;;;;;;;;7366555;19;1783;-50
2022/10/11 00:34:16;;;;;;;;;;;;;;;;;;7365131;19;862;-46
2022/10/11 00:36:44;;;;;;;;;;;;;;;;;;7368480;19;1899;-46
2022/10/11 00:39:12;;;;;;;;;;;;;;;;;;7365924;19;1816;-47
2022/10/11 00:41:40;;;;;;;;;;;;;;;;;;7373868;19;1800;-49
2022/10/11 00:44:08;;;;;;;;;;;;;;;;;;7370528;19;828;-47
2022/10/11 00:46:36;;;;;;;;;;;;;;;;;;7372195;19;1839;-46
2022/10/11 00:49:05;;;;;;;;;;;;;;;;;;7370963;19;1840;-49
2022/10/11 00:51:33;;;;;;;;;;;;;;;;;;7373809;19;1813;-51
2022/10/11 00:54:01;;;;;;;;;;;;;;;;;;7374146;19;1808;-48
2022/10/11 00:56:29;;;;;;;;;;;;;;;;;;7373148;19;2034;-49
2022/10/11 00:58:58;;;;;;;;;;;;;;;;;;7372286;19;1661;-50
2022/10/11 01:01:26;;;;;;;;;;;;;;;;;;7373841;19;1824;-50
2022/10/11 01:03:54;;;;;;;;;;;;;;;;;;7373916;19;1857;-49
2022/10/11 01:06:22;;;;;;;;;;;;;;;;;;7370463;19;1834;-46
2022/10/11 01:08:50;;;;;;;;;;;;;;;;;;7368613;19;1283;-48
2022/10/11 01:11:18;;;;;;;;;;;;;;;;;;7370651;19;1810;-49
2022/10/11 01:13:46;;;;;;;;;;;;;;;;;;7370651;19;809;-48
2022/10/11 01:16:14;;;;;;;;;;;;;;;;;;7369614;19;1837;-51
2022/10/11 01:18:43;;;;;;;;;;;;;;;;;;7368357;19;1290;-50
2022/10/11 01:21:11;;;;;;;;;;;;;;;;;;7373110;19;1822;-49
2022/10/11 01:23:39;;;;;;;;;;;;;;;;;;7373096;19;1774;-50
2022/10/11 01:26:07;;;;;;;;;;;;;;;;;;7371787;19;1800;-48
2022/10/11 01:28:35;;;;;;;;;;;;;;;;;;7371386;19;2049;-48
2022/10/11 01:31:03;;;;;;;;;;;;;;;;;;7373215;19;1587;-53
2022/10/11 01:33:31;;;;;;;;;;;;;;;;;;7374228;19;2064;-49
2022/10/11 01:35:59;;;;;;;;;;;;;;;;;;7370261;19;1857;-47
2022/10/11 01:38:27;;;;;;;;;;;;;;;;;;7373089;19;1725;-47
2022/10/11 01:40:56;;;;;;;;;;;;;;;;;;7370161;19;924;-48
2022/10/11 01:43:24;;;;;;;;;;;;;;;;;;7374232;19;1840;-47
2022/10/11 01:45:52;;;;;;;;;;;;;;;;;;7369926;19;866;-51
2022/10/11 01:48:20;;;;;;;;;;;;;;;;;;7370405;19;1797;-49
2022/10/11 01:50:48;;;;;;;;;;;;;;;;;;7368176;19;865;-48
2022/10/11 01:53:16;;;;;;;;;;;;;;;;;;7372626;19;1820;-50
2022/10/11 01:55:44;;;;;;;;;;;;;;;;;;7370623;19;1687;-52
2022/10/11 01:58:12;;;;;;;;;;;;;;;;;;7369365;19;1857;-49
2022/10/11 02:00:41;;;;;;;;;;;;;;;;;;7371533;19;1769;-48
2022/10/11 02:03:10;;;;;;;;;;;;;;;;;;7372760;19;2067;-50
2022/10/11 02:05:38;;;;;;;;;;;;;;;;;;7368076;19;875;-49
2022/10/11 02:08:06;;;;;;;;;;;;;;;;;;7370446;19;1771;-48
2022/10/11 02:10:34;;;;;;;;;;;;;;;;;;7369060;19;864;-46
2022/10/11 02:13:02;;;;;;;;;;;;;;;;;;7371128;19;1855;-49
2022/10/11 02:15:30;;;;;;;;;;;;;;;;;;7369151;19;857;-50
2022/10/11 02:17:59;;;;;;;;;;;;;;;;;;7368888;19;2083;-51
2022/10/11 02:20:27;;;;;;;;;;;;;;;;;;7368641;19;780;-49
2022/10/11 02:22:55;;;;;;;;;;;;;;;;;;7371681;19;1515;-52
2022/10/11 02:25:23;;;;;;;;;;;;;;;;;;7371664;19;1715;-48
2022/10/11 02:27:51;;;;;;;;;;;;;;;;;;7371780;19;1835;-49
2022/10/11 02:30:20;;;;;;;;;;;;;;;;;;7369716;19;1806;-49
2022/10/11 02:32:48;;;;;;;;;;;;;;;;;;7370093;19;1779;-47
2022/10/11 02:35:16;;;;;;;;;;;;;;;;;;7371024;19;1612;-46
2022/10/11 02:37:44;;;;;;;;;;;;;;;;;;7367974;19;1845;-47
2022/10/11 02:40:12;;;;;;;;;;;;;;;;;;7368508;19;1763;-48
2022/10/11 02:42:41;;;;;;;;;;;;;;;;;;7369059;19;1573;-53
2022/10/11 02:45:09;;;;;;;;;;;;;;;;;;7369188;19;905;-48
2022/10/11 02:47:38;;;;;;;;;;;;;;;;;;7369959;19;1772;-48
2022/10/11 02:50:06;;;;;;;;;;;;;;;;;;7367892;19;792;-52
2022/10/11 02:52:34;;;;;;;;;;;;;;;;;;7368407;19;869;-49
2022/10/11 02:55:02;;;;;;;;;;;;;;;;;;7368642;19;1849;-48
2022/10/11 02:57:30;;;;;;;;;;;;;;;;;;7369915;19;1853;-50
2022/10/11 02:59:58;;;;;;;;;;;;;;;;;;7365150;19;2093;-47
2022/10/11 03:02:26;;;;;;;;;;;;;;;;;;7369170;19;1775;-50
2022/10/11 03:04:54;;;;;;;;;;;;;;;;;;7368356;19;1723;-48
2022/10/11 03:07:23;;;;;;;;;;;;;;;;;;7366861;19;825;-48
2022/10/11 03:09:51;;;;;;;;;;;;;;;;;;7365678;19;1841;-52
2022/10/11 03:12:19;;;;;;;;;;;;;;;;;;7369586;19;1771;-46
2022/10/11 03:14:47;;;;;;;;;;;;;;;;;;7368825;19;2058;-47
2022/10/11 03:17:15;;;;;;;;;;;;;;;;;;7366376;19;1842;-46
2022/10/11 03:19:43;;;;;;;;;;;;;;;;;;7365227;19;1782;-45
2022/10/11 03:22:11;;;;;;;;;;;;;;;;;;7367405;19;831;-45
2022/10/11 03:24:39;;;;;;;;;;;;;;;;;;7367498;19;1849;-45
2022/10/11 03:27:08;;;;;;;;;;;;;;;;;;7370288;19;1550;-48
2022/10/11 03:29:36;;;;;;;;;;;;;;;;;;7366344;19;1799;-48
2022/10/11 03:32:04;;;;;;;;;;;;;;;;;;7370326;19;1821;-44
2022/10/11 03:34:32;;;;;;;;;;;;;;;;;;7367356;19;2124;-45
2022/10/11 03:37:00;;;;;;;;;;;;;;;;;;7370322;19;1846;-52
2022/10/11 03:39:28;;;;;;;;;;;;;;;;;;7362706;19;1887;-52
2022/10/11 03:41:56;;;;;;;;;;;;;;;;;;7366578;19;838;-53
2022/10/11 03:44:24;;;;;;;;;;;;;;;;;;7367175;19;1791;-48
2022/10/11 03:46:53;;;;;;;;;;;;;;;;;;7367779;19;1751;-50
2022/10/11 03:49:21;;;;;;;;;;;;;;;;;;7363169;19;1267;-51
2022/10/11 03:51:49;;;;;;;;;;;;;;;;;;7370785;19;1845;-50
2022/10/11 03:54:17;;;;;;;;;;;;;;;;;;7366451;19;845;-51
2022/10/11 03:56:45;;;;;;;;;;;;;;;;;;7369370;19;1849;-53
2022/10/11 03:59:13;;;;;;;;;;;;;;;;;;7365124;19;1776;-47
2022/10/11 04:01:41;;;;;;;;;;;;;;;;;;7369790;19;1825;-47
2022/10/11 04:04:09;;;;;;;;;;;;;;;;;;7370072;19;1820;-45
2022/10/11 04:06:37;;;;;;;;;;;;;;;;;;7367690;19;1836;-52
2022/10/11 04:09:06;;;;;;;;;;;;;;;;;;7363601;19;1211;-47
2022/10/11 04:11:34;;;;;;;;;;;;;;;;;;7369449;19;1802;-47
2022/10/11 04:14:02;;;;;;;;;;;;;;;;;;7363566;19;848;-48
2022/10/11 04:16:30;;;;;;;;;;;;;;;;;;7369458;19;1797;-48
2022/10/11 04:18:58;;;;;;;;;;;;;;;;;;7366105;19;1865;-52
2022/10/11 04:21:26;;;;;;;;;;;;;;;;;;7366982;19;1619;-48
2022/10/11 04:23:54;;;;;;;;;;;;;;;;;;7365155;19;942;-51
2022/10/11 04:26:23;;;;;;;;;;;;;;;;;;7365649;19;874;-49
2022/10/11 04:28:51;;;;;;;;;;;;;;;;;;7361763;19;1318;-52
2022/10/11 04:31:19;;;;;;;;;;;;;;;;;;7365095;19;783;-50
2022/10/11 04:33:47;;;;;;;;;;;;;;;;;;7366927;19;1642;-48
2022/10/11 04:36:15;;;;;;;;;;;;;;;;;;7365360;19;863;-47
2022/10/11 04:38:43;;;;;;;;;;;;;;;;;;7361585;19;1838;-48
2022/10/11 04:41:11;;;;;;;;;;;;;;;;;;7365535;19;792;-48
2022/10/11 04:43:39;;;;;;;;;;;;;;;;;;7364971;19;834;-50
2022/10/11 04:46:08;;;;;;;;;;;;;;;;;;7365146;19;806;-50
2022/10/11 04:48:36;;;;;;;;;;;;;;;;;;7362626;19;1227;-50
2022/10/11 04:51:04;;;;;;;;;;;;;;;;;;7365135;19;877;-47
2022/10/11 04:53:32;;;;;;;;;;;;;;;;;;7364362;19;831;-46
2022/10/11 04:56:00;;;;;;;;;;;;;;;;;;7364488;19;787;-46
2022/10/11 04:58:28;;;;;;;;;;;;;;;;;;7362251;19;1835;-46
2022/10/11 05:00:56;;;;;;;;;;;;;;;;;;7365109;19;869;-46
2022/10/11 05:03:24;;;;;;;;;;;;;;;;;;7364611;19;881;-46
2022/10/11 05:05:53;;;;;;;;;;;;;;;;;;7364600;19;850;-53
2022/10/11 05:08:22;;;;;;;;;;;;;;;;;;7362851;19;1274;-49
2022/10/11 05:10:50;;;;;;;;;;;;;;;;;;7367628;19;1817;-47
2022/10/11 05:13:18;;;;;;;;;;;;;;;;;;7364899;19;786;-49
2022/10/11 05:15:46;;;;;;;;;;;;;;;;;;7363888;19;814;-49
2022/10/11 05:18:14;;;;;;;;;;;;;;;;;;7361829;19;1859;-50
2022/10/11 05:20:42;;;;;;;;;;;;;;;;;;7364086;19;780;-49
2022/10/11 05:23:10;;;;;;;;;;;;;;;;;;7363475;19;866;-52
2022/10/11 05:25:38;;;;;;;;;;;;;;;;;;7364054;19;805;-52
2022/10/11 05:28:06;;;;;;;;;;;;;;;;;;7369604;19;1293;-52
2022/10/11 05:30:35;;;;;;;;;;;;;;;;;;7370584;19;823;-48
2022/10/11 05:33:03;;;;;;;;;;;;;;;;;;7369464;19;857;-46
2022/10/11 05:35:31;;;;;;;;;;;;;;;;;;7370358;19;822;-50
2022/10/11 05:37:59;;;;;;;;;;;;;;;;;;7368573;19;1830;-48
2022/10/11 05:40:27;;;;;;;;;;;;;;;;;;7369979;19;826;-48
2022/10/11 05:42:55;;;;;;;;;;;;;;;;;;7369997;19;802;-47
2022/10/11 05:45:23;;;;;;;;;;;;;;;;;;7370135;19;811;-48
2022/10/11 05:47:51;;;;;;;;;;;;;;;;;;7368046;19;1216;-47
2022/10/11 05:50:19;;;;;;;;;;;;;;;;;;7370228;19;880;-49
2022/10/11 05:52:48;;;;;;;;;;;;;;;;;;7369774;19;834;-49
2022/10/11 05:55:16;;;;;;;;;;;;;;;;;;7369372;19;870;-51
2022/10/11 05:57:44;;;;;;;;;;;;;;;;;;7367780;19;1838;-48
2022/10/11 06:00:12;;;;;;;;;;;;;;;;;;7368963;19;830;-48
2022/10/11 06:02:40;;;;;;;;;;;;;;;;;;7369767;19;919;-45
2022/10/11 06:05:08;;;;;;;;;;;;;;;;;;7369204;19;819;-49
2022/10/11 06:07:36;;;;;;;;;;;;;;;;;;7368870;19;1357;-49
2022/10/11 06:10:05;;;;;;;;;;;;;;;;;;7370619;19;1630;-49
2022/10/11 06:12:33;;;;;;;;;;;;;;;;;;7369918;19;906;-49
2022/10/11 06:15:02;;;;;;;;;;;;;;;;;;7370186;19;838;-51
2022/10/11 06:17:30;;;;;;;;;;;;;;;;;;7368427;19;1860;-48
2022/10/11 06:19:58;;;;;;;;;;;;;;;;;;7366986;19;1275;-46
2022/10/11 06:22:26;;;;;;;;;;;;;;;;;;7369199;19;861;-47
2022/10/11 06:24:54;;;;;;;;;;;;;;;;;;7369472;19;893;-48
2022/10/11 06:27:22;;;;;;;;;;;;;;;;;;7368734;19;718;-47
2022/10/11 06:29:51;;;;;;;;;;;;;;;;;;7366506;19;1216;-47
2022/10/11 06:32:19;;;;;;;;;;;;;;;;;;7368768;19;870;-47
2022/10/11 06:34:47;;;;;;;;;;;;;;;;;;7370986;19;1435;-47
2022/10/11 06:37:15;;;;;;;;;;;;;;;;;;7370660;19;1702;-46
2022/10/11 06:39:43;;;;;;;;;;;;;;;;;;7368660;19;1841;-46
2022/10/11 06:42:11;;;;;;;;;;;;;;;;;;7368683;19;811;-45
2022/10/11 06:44:39;;;;;;;;;;;;;;;;;;7369328;19;827;-47
2022/10/11 06:47:08;;;;;;;;;;;;;;;;;;7368969;19;782;-48
2022/10/11 06:49:36;;;;;;;;;;;;;;;;;;7365558;19;1251;-48
2022/10/11 06:52:04;;;;;;;;;;;;;;;;;;7368168;19;793;-48
2022/10/11 06:54:32;;;;;;;;;;;;;;;;;;7368201;19;789;-44
2022/10/11 06:57:00;;;;;;;;;;;;;;;;;;7367922;19;803;-44
2022/10/11 06:59:28;;;;;;;;;;;;;;;;;;7365097;19;1833;-45
2022/10/11 07:01:56;;;;;;;;;;;;;;;;;;7368994;19;837;-48
2022/10/11 07:04:24;;;;;;;;;;;;;;;;;;7367603;19;804;-46
2022/10/11 07:06:53;;;;;;;;;;;;;;;;;;7367984;19;865;-46
2022/10/11 07:09:21;;;;;;;;;;;;;;;;;;7365354;19;1266;-49
2022/10/11 07:11:49;;;;;;;;;;;;;;;;;;7368836;19;836;-48
2022/10/11 07:14:17;;;;;;;;;;;;;;;;;;7369028;19;798;-48
2022/10/11 07:16:45;;;;;;;;;;;;;;;;;;7368596;19;862;-48
2022/10/11 07:19:13;;;;;;;;;;;;;;;;;;7364716;19;1850;-48
2022/10/11 07:21:41;;;;;;;;;;;;;;;;;;7369269;19;823;-48
2022/10/11 07:24:10;;;;;;;;;;;;;;;;;;7368185;19;846;-45
2022/10/11 07:26:38;;;;;;;;;;;;;;;;;;7371167;19;1685;-50
2022/10/11 07:29:06;;;;;;;;;;;;;;;;;;7364724;19;1369;-45
2022/10/11 07:31:34;;;;;;;;;;;;;;;;;;7368219;19;856;-49
2022/10/11 07:34:02;;;;;;;;;;;;;;;;;;7367490;19;723;-47
2022/10/11 07:36:30;;;;;;;;;;;;;;;;;;7371826;19;898;-51
2022/10/11 07:38:58;;;;;;;;;;;;;;;;;;7364826;19;1846;-46
2022/10/11 07:41:26;;;;;;;;;;;;;;;;;;7370046;19;877;-46
2022/10/11 07:43:55;;;;;;;;;;;;;;;;;;7366458;19;870;-47
2022/10/11 07:46:23;;;;;;;;;;;;;;;;;;7367756;19;828;-47
2022/10/11 07:48:51;;;;;;;;;;;;;;;;;;7363727;19;1741;-48
2022/10/11 07:51:19;;;;;;;;;;;;;;;;;;7371334;19;1812;-47
2022/10/11 07:53:48;;;;;;;;;;;;;;;;;;7367069;19;940;-45
2022/10/11 07:56:16;;;;;;;;;;;;;;;;;;7368895;19;1675;-47
2022/10/11 07:58:44;;;;;;;;;;;;;;;;;;7364378;19;1850;-49
2022/10/11 08:01:13;;;;;;;;;;;;;;;;;;7366830;19;826;-47
2022/10/11 08:03:41;;;;;;;;;;;;;;;;;;7367435;19;812;-51
2022/10/11 08:06:09;;;;;;;;;;;;;;;;;;7366768;19;781;-48
2022/10/11 08:08:37;;;;;;;;;;;;;;;;;;7363833;19;1267;-50
2022/10/11 08:11:06;;;;;;;;;;;;;;;;;;7367610;19;1764;-49
2022/10/11 08:13:34;;;;;;;;;;;;;;;;;;7368160;19;783;-46
2022/10/11 08:16:02;;;;;;;;;;;;;;;;;;7370622;19;731;-47
2022/10/11 08:18:30;;;;;;;;;;;;;;;;;;7364108;19;1845;-46
2022/10/11 08:20:58;;;;;;;;;;;;;;;;;;7366122;19;818;-46
2022/10/11 08:23:26;;;;;;;;;;;;;;;;;;7366126;19;783;-46
2022/10/11 08:25:54;;;;;;;;;;;;;;;;;;7366922;19;1823;-47
2022/10/11 08:28:22;;;;;;;;;;;;;;;;;;7367511;19;1390;-46
2022/10/11 08:30:51;;;;;;;;;;;;;;;;;;7366502;19;819;-46
2022/10/11 08:33:19;;;;;;;;;;;;;;;;;;7365821;19;794;-49
2022/10/11 08:35:47;;;;;;;;;;;;;;;;;;7365364;19;798;-49
2022/10/11 08:38:15;;;;;;;;;;;;;;;;;;7364340;19;1850;-46
2022/10/11 08:40:43;;;;;;;;;;;;;;;;;;7369961;19;1795;-48
2022/10/11 08:43:11;;;;;;;;;;;;;;;;;;7366110;19;826;-50
2022/10/11 08:45:39;;;;;;;;;;;;;;;;;;7366821;19;730;-46
2022/10/11 08:48:07;;;;;;;;;;;;;;;;;;7365713;19;1266;-47
2022/10/11 08:50:36;;;;;;;;;;;;;;;;;;7370141;19;1355;-50
2022/10/11 08:53:04;;;;;;;;;;;;;;;;;;7364909;19;819;-48
2022/10/11 08:55:33;;;;;;;;;;;;;;;;;;7365768;19;1787;-49
2022/10/11 08:58:01;;;;;;;;;;;;;;;;;;7363653;19;1329;-49
2022/10/11 09:00:29;;;;;;;;;;;;;;;;;;7367801;19;748;-48
2022/10/11 09:02:58;;;;;;;;;;;;;;;;;;7372841;19;1781;-45
2022/10/11 09:05:26;;;;;;;;;;;;;;;;;;7372548;19;810;-47
2022/10/11 09:07:54;;;;;;;;;;;;;;;;;;7371169;19;1329;-50
2022/10/11 09:10:22;;;;;;;;;;;;;;;;;;7371918;19;807;-47
2022/10/11 09:12:50;;;;;;;;;;;;;;;;;;7371666;19;805;-45
2022/10/11 09:15:18;;;;;;;;;;;;;;;;;;7372557;19;830;-45
2022/10/11 09:17:46;;;;;;;;;;;;;;;;;;7372181;19;1271;-45
2022/10/11 09:20:14;;;;;;;;;;;;;;;;;;7371835;19;1845;-44
2022/10/11 09:22:43;;;;;;;;;;;;;;;;;;7374419;19;814;-45
2022/10/11 09:25:11;;;;;;;;;;;;;;;;;;7374676;19;807;-44
2022/10/11 09:27:39;;;;;;;;;;;;;;;;;;7377918;19;2011;-45
2022/10/11 09:30:07;;;;;;;;;;;;;;;;;;7371004;19;822;-45
2022/10/11 09:32:35;;;;;;;;;;;;;;;;;;7371334;19;868;-49
2022/10/11 09:35:03;;;;;;;;;;;;;;;;;;7370725;19;835;-47
2022/10/11 09:37:32;;;;;;;;;;;;;;;;;;7371018;19;796;-50
2022/10/11 09:40:00;;;;;;;;;;;;;;;;;;7368572;19;1846;-46
2022/10/11 09:42:28;;;;;;;;;;;;;;;;;;7371254;19;877;-47
2022/10/11 09:44:58;;;;;;;;;;;;;;;;;;7370537;19;807;-45
2022/10/11 09:47:27;;;;;;;;;;;;;;;;;;7371011;19;1708;-44
2022/10/11 09:49:55;;;;;;;;;;;;;;;;;;7370081;19;1927;-47
2022/10/11 09:52:23;;;;;;;;;;;;;;;;;;7373294;19;1701;-44
2022/10/11 09:54:51;;;;;;;;;;;;;;;;;;7370030;19;792;-46
2022/10/11 09:57:19;;;;;;;;;;;;;;;;;;7373068;19;1818;-44
2022/10/11 09:59:47;;;;;;;;;;;;;;;;;;7366661;19;1841;-48
2022/10/11 10:02:15;;;;;;;;;;;;;;;;;;7370584;19;870;-44
2022/10/11 10:04:43;;;;;;;;;;;;;;;;;;7371258;19;806;-46
2022/10/11 10:07:12;;;;;;;;;;;;;;;;;;7370191;19;857;-45
2022/10/11 10:09:40;;;;;;;;;;;;;;;;;;7367629;19;1295;-46
2022/10/11 10:12:08;;;;;;;;;;;;;;;;;;7368475;19;808;-46
2022/10/11 10:14:36;;;;;;;;;;;;;;;;;;7370962;19;850;-45
2022/10/11 10:17:04;;;;;;;;;;;;;;;;;;7370046;19;858;-56
2022/10/11 10:19:33;;;;;;;;;;;;;;;;;;7367323;19;1830;-46
2022/10/11 10:22:01;;;;;;;;;;;;;;;;;;7370288;19;831;-51
2022/10/11 10:24:29;;;;;;;;;;;;;;;;;;7370372;19;858;-49
2022/10/11 10:26:57;;;;;;;;;;;;;;;;;;7372899;19;1798;-46
2022/10/11 10:29:25;;;;;;;;;;;;;;;;;;7367013;19;1282;-45
2022/10/11 10:31:53;;;;;;;;;;;;;;;;;;7369860;19;881;-46
2022/10/11 10:34:21;;;;;;;;;;;;;;;;;;7369674;19;821;-45
2022/10/11 10:36:49;;;;;;;;;;;;;;;;;;7368970;19;789;-47
2022/10/11 10:39:18;;;;;;;;;;;;;;;;;;7365797;19;1849;-47
2022/10/11 10:41:46;;;;;;;;;;;;;;;;;;7369076;19;853;-47
2022/10/11 10:44:14;;;;;;;;;;;;;;;;;;7369090;19;799;-44
2022/10/11 10:46:42;;;;;;;;;;;;;;;;;;7369023;19;1792;-45
2022/10/11 10:49:10;;;;;;;;;;;;;;;;;;7365401;19;1303;-47
2022/10/11 10:51:38;;;;;;;;;;;;;;;;;;7368987;19;739;-49
2022/10/11 10:54:07;;;;;;;;;;;;;;;;;;7368585;19;846;-44
2022/10/11 10:56:35;;;;;;;;;;;;;;;;;;7370818;19;1771;-47
2022/10/11 10:59:03;;;;;;;;;;;;;;;;;;7365760;19;1858;-45
2022/10/11 11:01:31;;;;;;;;;;;;;;;;;;7368343;19;822;-44
2022/10/11 11:04:00;;;;;;;;;;;;;;;;;;7368094;19;854;-45
2022/10/11 11:06:28;;;;;;;;;;;;;;;;;;7368491;19;826;-43
2022/10/11 11:08:56;;;;;;;;;;;;;;;;;;7366383;19;1258;-52
2022/10/11 11:11:24;;;;;;;;;;;;;;;;;;7369381;19;831;-51
2022/10/11 11:13:52;;;;;;;;;;;;;;;;;;7368713;19;873;-53
2022/10/11 11:16:20;;;;;;;;;;;;;;;;;;7370772;19;1044;-50
2022/10/11 11:18:48;;;;;;;;;;;;;;;;;;7369494;19;1843;-50
2022/10/11 11:21:16;;;;;;;;;;;;;;;;;;7367932;19;854;-51
2022/10/11 11:23:45;;;;;;;;;;;;;;;;;;7367931;19;874;-47
2022/10/11 11:26:13;;;;;;;;;;;;;;;;;;7367965;19;1783;-49
2022/10/11 11:28:41;;;;;;;;;;;;;;;;;;7370270;19;1552;-46
2022/10/11 11:31:09;;;;;;;;;;;;;;;;;;7362806;19;814;-56
2022/10/11 11:33:37;;;;;;;;;;;;;;;;;;7364368;19;831;-54
2022/10/11 11:36:05;;;;;;;;;;;;;;;;;;7365847;19;806;-51
2022/10/11 11:38:33;;;;;;;;;;;;;;;;;;7361115;19;1334;-54
2022/10/11 11:41:03;;;;;;;;;;;;;;;;;;7363293;19;1845;-63
2022/10/11 11:43:31;;;;;;;;;;;;;;;;;;7367295;19;930;-60
2022/10/11 11:45:59;;;;;;;;;;;;;;;;;;7367374;19;811;-56
2022/10/11 11:48:28;;;;;;;;;;;;;;;;;;7369075;19;1850;-47
2022/10/11 11:50:58;;;;;;;;;;;;;;;;;;7366084;19;1932;-54
2022/10/11 11:53:27;;;;;;;;;;;;;;;;;;7367010;19;873;-50
2022/10/11 11:55:55;;;;;;;;;;;;;;;;;;7368203;19;2075;-53
2022/10/11 11:58:23;;;;;;;;;;;;;;;;;;7364332;19;1279;-52
2022/10/11 12:00:51;;;;;;;;;;;;;;;;;;7363470;19;1838;-53
2022/10/11 12:03:19;;;;;;;;;;;;;;;;;;7366049;19;834;-54
2022/10/11 12:05:47;;;;;;;;;;;;;;;;;;7365921;19;865;-55
2022/10/11 12:08:15;;;;;;;;;;;;;;;;;;7364461;19;1278;-55
2022/10/11 12:10:44;;;;;;;;;;;;;;;;;;7365373;19;1226;-55
2022/10/11 12:13:12;;;;;;;;;;;;;;;;;;7365594;19;864;-55
2022/10/11 12:15:40;;;;;;;;;;;;;;;;;;7366103;19;822;-51
2022/10/11 12:18:08;;;;;;;;;;;;;;;;;;7363551;19;1284;-54
2022/10/11 12:20:39;;;;;;;;;;;;;;;;;;7364087;19;1850;-54
2022/10/11 12:23:07;;;;;;;;;;;;;;;;;;7365464;19;710;-51
2022/10/11 12:25:36;;;;;;;;;;;;;;;;;;7365185;19;1460;-55
2022/10/11 12:28:04;;;;;;;;;;;;;;;;;;7364902;19;1326;-53
2022/10/11 12:30:32;;;;;;;;;;;;;;;;;;7366212;19;805;-50
2022/10/11 12:33:01;;;;;;;;;;;;;;;;;;7365846;19;873;-56
2022/10/11 12:35:29;;;;;;;;;;;;;;;;;;7368506;19;797;-53
2022/10/11 12:37:57;;;;;;;;;;;;;;;;;;7370798;19;1368;-49
2022/10/11 12:40:25;;;;;;;;;;;;;;;;;;7373565;19;1853;-51
2022/10/11 12:42:53;;;;;;;;;;;;;;;;;;7373600;19;1678;-56
2022/10/11 12:45:22;;;;;;;;;;;;;;;;;;7371610;19;743;-55
2022/10/11 12:47:50;;;;;;;;;;;;;;;;;;7370650;19;1381;-51
2022/10/11 12:50:18;;;;;;;;;;;;;;;;;;7370993;19;1423;-58
2022/10/11 12:52:46;;;;;;;;;;;;;;;;;;7369998;19;805;-57
2022/10/11 12:55:14;;;;;;;;;;;;;;;;;;7368006;19;1829;-51
2022/10/11 12:57:42;;;;;;;;;;;;;;;;;;7369847;19;2018;-56
2022/10/11 13:00:11;;;;;;;;;;;;;;;;;;7369279;19;1842;-55
2022/10/11 13:02:39;;;;;;;;;;;;;;;;;;7370762;19;822;-55
2022/10/11 13:05:07;;;;;;;;;;;;;;;;;;7372296;19;1836;-55
2022/10/11 13:07:35;;;;;;;;;;;;;;;;;;7374152;19;1744;-55
2022/10/11 13:10:04;;;;;;;;;;;;;;;;;;7370983;19;806;-52
2022/10/11 13:12:32;;;;;;;;;;;;;;;;;;7371499;19;830;-56
2022/10/11 13:15:02;;;;;;;;;;;;;;;;;;7371486;19;1163;-56
2022/10/11 13:17:30;;;;;;;;;;;;;;;;;;7369994;19;895;-55
2022/10/11 13:19:58;;;;;;;;;;;;;;;;;;7368359;19;1845;-54
2022/10/11 13:22:27;;;;;;;;;;;;;;;;;;7370865;19;802;-55
2022/10/11 13:24:55;;;;;;;;;;;;;;;;;;7370959;19;784;-57
2022/10/11 13:27:23;;;;;;;;;;;;;;;;;;7374660;19;1759;-58
2022/10/11 13:29:51;;;;;;;;;;;;;;;;;;7367482;19;1259;-57
2022/10/11 13:32:19;;;;;;;;;;;;;;;;;;7368802;19;847;-57
2022/10/11 13:34:47;;;;;;;;;;;;;;;;;;7375050;19;1443;-59
2022/10/11 13:37:15;;;;;;;;;;;;;;;;;;7370112;19;801;-59
2022/10/11 13:39:44;;;;;;;;;;;;;;;;;;7367354;19;1837;-51
2022/10/11 13:42:12;;;;;;;;;;;;;;;;;;7369975;19;852;-58
2022/10/11 13:44:40;;;;;;;;;;;;;;;;;;7369598;19;791;-59
2022/10/11 13:47:08;;;;;;;;;;;;;;;;;;7365631;19;881;-59
2022/10/11 13:49:39;;;;;;;;;;;;;;;;;;7366485;19;1333;-57
2022/10/11 13:52:08;;;;;;;;;;;;;;;;;;7369195;19;838;-57
2022/10/11 13:54:36;;;;;;;;;;;;;;;;;;7372135;19;1026;-53
2022/10/11 13:57:04;;;;;;;;;;;;;;;;;;7372991;19;1786;-56
2022/10/11 13:59:32;;;;;;;;;;;;;;;;;;7366849;19;1260;-55
2022/10/11 14:02:03;;;;;;;;;;;;;;;;;;7369461;19;1050;-56
2022/10/11 14:04:31;;;;;;;;;;;;;;;;;;7367836;19;1251;-56
2022/10/11 14:06:59;;;;;;;;;;;;;;;;;;7368612;19;742;-57
2022/10/11 14:09:27;;;;;;;;;;;;;;;;;;7366262;19;1322;-58
2022/10/11 14:11:55;;;;;;;;;;;;;;;;;;7369369;19;870;-52
2022/10/11 14:14:23;;;;;;;;;;;;;;;;;;7370236;19;907;-52
2022/10/11 14:16:51;;;;;;;;;;;;;;;;;;7369304;19;818;-58
2022/10/11 14:19:20;;;;;;;;;;;;;;;;;;7366105;19;1326;-58
2022/10/11 14:21:48;;;;;;;;;;;;;;;;;;7366665;19;1861;-54
2022/10/11 14:24:16;;;;;;;;;;;;;;;;;;7369098;19;842;-52
2022/10/11 14:26:44;;;;;;;;;;;;;;;;;;7371330;19;1773;-53
2022/10/11 14:29:12;;;;;;;;;;;;;;;;;;7367547;19;1294;-53
2022/10/11 14:31:41;;;;;;;;;;;;;;;;;;7369745;19;881;-52
2022/10/11 14:34:09;;;;;;;;;;;;;;;;;;7370036;19;847;-51
2022/10/11 14:36:37;;;;;;;;;;;;;;;;;;7369104;19;849;-51
2022/10/11 14:39:05;;;;;;;;;;;;;;;;;;7367145;19;1331;-52
2022/10/11 14:41:33;;;;;;;;;;;;;;;;;;7368361;19;1854;-52
2022/10/11 14:44:02;;;;;;;;;;;;;;;;;;7370010;19;819;-57
2022/10/11 14:46:30;;;;;;;;;;;;;;;;;;7368541;19;863;-53
2022/10/11 14:48:58;;;;;;;;;;;;;;;;;;7366101;19;1326;-55
2022/10/11 14:51:26;;;;;;;;;;;;;;;;;;7367480;19;768;-57
2022/10/11 14:53:54;;;;;;;;;;;;;;;;;;7368596;19;1500;-54
2022/10/11 14:56:23;;;;;;;;;;;;;;;;;;7369863;19;1670;-55
2022/10/11 14:58:51;;;;;;;;;;;;;;;;;;7364228;19;1318;-52
2022/10/11 15:01:19;;;;;;;;;;;;;;;;;;7365031;19;1836;-57
2022/10/11 15:03:47;;;;;;;;;;;;;;;;;;7370468;19;1769;-57
2022/10/11 15:06:15;;;;;;;;;;;;;;;;;;7366939;19;878;-56
2022/10/11 15:08:43;;;;;;;;;;;;;;;;;;7364109;19;1267;-57
2022/10/11 15:11:11;;;;;;;;;;;;;;;;;;7366593;19;870;-57
2022/10/11 15:13:40;;;;;;;;;;;;;;;;;;7366819;19;726;-55
2022/10/11 15:16:08;;;;;;;;;;;;;;;;;;7367224;19;728;-55
2022/10/11 15:18:36;;;;;;;;;;;;;;;;;;7366198;19;1279;-56
2022/10/11 15:21:04;;;;;;;;;;;;;;;;;;7365822;19;1849;-58
2022/10/11 15:23:32;;;;;;;;;;;;;;;;;;7368298;19;831;-54
2022/10/11 15:26:00;;;;;;;;;;;;;;;;;;7368224;19;1816;-52
2022/10/11 15:28:28;;;;;;;;;;;;;;;;;;7365623;19;1277;-55
2022/10/11 15:30:57;;;;;;;;;;;;;;;;;;7367417;19;888;-56
2022/10/11 15:33:25;;;;;;;;;;;;;;;;;;7367176;19;854;-53
2022/10/11 15:35:53;;;;;;;;;;;;;;;;;;7367797;19;809;-56
2022/10/11 15:38:21;;;;;;;;;;;;;;;;;;7365099;19;1318;-54
2022/10/11 15:40:49;;;;;;;;;;;;;;;;;;7366890;19;1849;-51
2022/10/11 15:43:17;;;;;;;;;;;;;;;;;;7367172;19;884;-51
2022/10/11 15:45:45;;;;;;;;;;;;;;;;;;7367159;19;742;-59
2022/10/11 15:48:13;;;;;;;;;;;;;;;;;;7365523;19;1243;-58
2022/10/11 15:50:42;;;;;;;;;;;;;;;;;;7369604;19;1873;-60
2022/10/11 15:53:10;;;;;;;;;;;;;;;;;;7366238;19;790;-60
2022/10/11 15:55:38;;;;;;;;;;;;;;;;;;7366092;19;1819;-58
2022/10/11 15:58:06;;;;;;;;;;;;;;;;;;7368202;19;1714;-59
2022/10/11 16:00:34;;;;;;;;;;;;;;;;;;7364502;19;1842;-64
2022/10/11 16:03:02;;;;;;;;;;;;;;;;;;7369596;19;1838;-65
2022/10/11 16:05:31;;;;;;;;;;;;;;;;;;7366298;19;842;-64
2022/10/11 16:07:59;;;;;;;;;;;;;;;;;;7365092;19;1338;-64
2022/10/11 16:10:27;;;;;;;;;;;;;;;;;;7364422;19;807;-63
2022/10/11 16:12:55;;;;;;;;;;;;;;;;;;7370468;19;802;-62
2022/10/11 16:15:23;;;;;;;;;;;;;;;;;;7373978;19;1668;-63
2022/10/11 16:17:51;;;;;;;;;;;;;;;;;;7374742;19;1934;-59
2022/10/11 16:20:21;;;;;;;;;;;;;;;;;;7371583;19;2266;-60
2022/10/11 16:22:49;;;;;;;;;;;;;;;;;;7372530;19;778;-61
2022/10/11 16:25:17;;;;;;;;;;;;;;;;;;7370515;19;948;-61
2022/10/11 16:27:45;;;;;;;;;;;;;;;;;;7365576;19;1301;-61
2022/10/11 16:30:14;;;;;;;;;;;;;;;;;;7366509;19;834;-63
2022/10/11 16:32:43;;;;;;;;;;;;;;;;;;7366844;19;870;-60
2022/10/11 16:35:11;;;;;;;;;;;;;;;;;;7366526;19;845;-62
2022/10/11 16:37:39;;;;;;;;;;;;;;;;;;7365259;19;814;-62
2022/10/11 16:40:07;;;;;;;;;;;;;;;;;;7367601;19;1793;-63
2022/10/11 16:42:35;;;;;;;;;;;;;;;;;;7363043;19;1884;-62
2022/10/11 16:45:03;;;;;;;;;;;;;;;;;;7366324;19;1783;-63
2022/10/11 16:47:32;;;;;;;;;;;;;;;;;;7369824;19;1693;-63
2022/10/11 16:50:00;;;;;;;;;;;;;;;;;;7362174;19;1353;-63
2022/10/11 16:52:28;;;;;;;;;;;;;;;;;;7364548;19;774;-63
2022/10/11 16:54:56;;;;;;;;;;;;;;;;;;7365412;19;829;-63
2022/10/11 16:57:24;;;;;;;;;;;;;;;;;;7368501;19;1811;-61
2022/10/11 16:59:52;;;;;;;;;;;;;;;;;;7361300;19;1302;-63
2022/10/11 17:02:21;;;;;;;;;;;;;;;;;;7362766;19;1871;-63
2022/10/11 17:04:50;;;;;;;;;;;;;;;;;;7364549;19;774;-62
2022/10/11 17:07:18;;;;;;;;;;;;;;;;;;7364362;19;764;-62
2022/10/11 17:09:47;;;;;;;;;;;;;;;;;;7361408;19;1341;-63
2022/10/11 17:12:15;;;;;;;;;;;;;;;;;;7364458;19;861;-60
2022/10/11 17:14:43;;;;;;;;;;;;;;;;;;7363971;19;763;-62
2022/10/11 17:17:11;;;;;;;;;;;;;;;;;;7365272;19;1823;-61